»·PEaware :: N143VT KBOI-KRNO

N143VT :: KBOI-KRNO

FLIGHT INFORMATION

Flight Status: Arrived
Operator: Privately registered:
United States
More flights under this callsign
Pilot: Anonymous 16492 (16492)
Aircraft: ECLIPSE 500
(EA50)
More flights by this aircraft type
Origin: KBOI Boise Air Terminal/Gowen
United States
Destination: KRNO Reno/Tahoe Intl
United States
More flights between these airports :: More routes between these airports
Route: +BOI3 HYVAL REO J7 GASSI WINRZ
File this flight plan on PilotEdge
Remarks:
Altitude:
(Current/Filed)
30,000ft
Speed:
(Current/Filed)
350kts
Departed: 21-Jun-18 04:44 PM
Arrived: 21-Jun-18 06:07 PM
Distance/Time
Traveled:
291nm/1:23
Distance/Time
To Go:
Arrived

Flight Plot

Page will automatically refresh every two minutes.

Flight plan parsing failed; only flown route is shown


Map Options




Map Legend


Flown Route
Filed Route
Departure Airport
Arrival Airport
Navaid (VOR, NDB)
Fix

Horizontal Profiles

Position Reports

Time Latitude Longitude Heading Altitude Ground
Speed
21-Jun-18 16:20 43.568811 -116.226780 2 2874ft 0kts
21-Jun-18 16:21 43.568811 -116.226780 2 2874ft 0kts
21-Jun-18 16:22 43.568811 -116.226780 2 2874ft 0kts
21-Jun-18 16:23 43.568811 -116.226780 2 2874ft 0kts
21-Jun-18 16:24 43.568811 -116.226780 2 2874ft 0kts
21-Jun-18 16:25 43.568811 -116.226780 2 2874ft 0kts
21-Jun-18 16:26 43.568811 -116.226780 2 2874ft 0kts
21-Jun-18 16:27 43.568811 -116.226780 2 2874ft 0kts
21-Jun-18 16:28 43.568811 -116.226780 2 2874ft 0kts
21-Jun-18 16:29 43.568811 -116.226780 2 2874ft 0kts
21-Jun-18 16:30 43.568811 -116.226780 2 2874ft 0kts
21-Jun-18 16:31 43.568811 -116.226780 2 2874ft 0kts
21-Jun-18 16:32 43.568811 -116.226780 2 2874ft 0kts
21-Jun-18 16:33 43.568811 -116.226780 2 2874ft 0kts
21-Jun-18 16:34 43.568811 -116.226780 2 2874ft 0kts
21-Jun-18 16:35 43.568823 -116.226779 1 2874ft 0kts
21-Jun-18 16:36 43.569000 -116.227681 273 2874ft 0kts
21-Jun-18 16:37 43.568596 -116.228156 163 2874ft 6kts
21-Jun-18 16:38 43.567176 -116.224315 114 2874ft 20kts
21-Jun-18 16:39 43.564187 -116.215529 115 2874ft 23kts
21-Jun-18 16:40 43.561881 -116.208753 118 2874ft 15kts
21-Jun-18 16:41 43.560184 -116.203935 116 2874ft 13kts
21-Jun-18 16:42 43.559383 -116.202042 166 2874ft 0kts
21-Jun-18 16:43 43.558749 -116.203175 293 2874ft 0kts
21-Jun-18 16:44 43.567417 -116.229585 291 3339ft 116kts
21-Jun-18 16:45 43.581883 -116.283636 291 4731ft 183kts
21-Jun-18 16:46 43.584836 -116.341022 223 7271ft 179kts
21-Jun-18 16:47 43.548620 -116.386671 229 9426ft 179kts
21-Jun-18 16:48 43.512654 -116.434576 229 11416ft 183kts
21-Jun-18 16:49 43.475640 -116.483689 229 13266ft 187kts
21-Jun-18 16:50 43.437889 -116.533649 229 14980ft 192kts
21-Jun-18 16:51 43.399321 -116.584581 229 16579ft 196kts
21-Jun-18 16:52 43.359780 -116.636682 229 18075ft 200kts
21-Jun-18 16:53 43.319385 -116.689802 229 19486ft 204kts
21-Jun-18 16:54 43.278110 -116.743970 229 20820ft 208kts
21-Jun-18 16:55 43.236081 -116.799025 229 22069ft 211kts
21-Jun-18 16:56 43.193362 -116.854861 229 23230ft 215kts
21-Jun-18 16:57 43.149805 -116.911682 229 24304ft 219kts
21-Jun-18 16:58 43.110278 -116.975061 236 25287ft 221kts
21-Jun-18 16:59 43.071961 -117.041608 236 26221ft 225kts
21-Jun-18 17:00 43.032861 -117.109526 236 27086ft 229kts
21-Jun-18 17:01 42.993461 -117.177836 236 27985ft 229kts
21-Jun-18 17:02 42.954308 -117.245609 236 28845ft 228kts
21-Jun-18 17:03 42.915239 -117.313110 236 29665ft 226kts
21-Jun-18 17:04 42.876350 -117.380199 235 30145ft 235kts
21-Jun-18 17:05 42.833886 -117.453236 235 30153ft 259kts
21-Jun-18 17:06 42.787728 -117.532388 235 30153ft 276kts
21-Jun-18 17:07 42.739163 -117.615427 235 30151ft 288kts
21-Jun-18 17:08 42.688989 -117.700989 234 30158ft 297kts
21-Jun-18 17:09 42.639199 -117.785605 234 30155ft 271kts
21-Jun-18 17:10 42.594102 -117.860614 225 30139ft 253kts
21-Jun-18 17:11 42.531419 -117.903005 212 30156ft 248kts
21-Jun-18 17:12 42.469785 -117.941770 211 30154ft 243kts
21-Jun-18 17:13 42.410966 -117.978100 211 30153ft 240kts
21-Jun-18 17:14 42.350809 -118.014980 211 30146ft 238kts
21-Jun-18 17:15 42.290729 -118.051668 211 30146ft 237kts
21-Jun-18 17:16 42.231251 -118.087865 211 30145ft 236kts
21-Jun-18 17:17 42.170545 -118.124772 211 30144ft 250kts
21-Jun-18 17:18 42.105588 -118.164074 211 30142ft 250kts
21-Jun-18 17:19 42.041737 -118.202695 211 30144ft 257kts
21-Jun-18 17:20 41.976367 -118.242100 210 30142ft 258kts
21-Jun-18 17:21 41.911209 -118.281285 211 30144ft 258kts
21-Jun-18 17:22 41.846099 -118.320380 211 30145ft 258kts
21-Jun-18 17:23 41.780785 -118.359495 211 30144ft 258kts
21-Jun-18 17:24 41.716247 -118.398069 210 30138ft 259kts
21-Jun-18 17:25 41.651067 -118.436931 211 30131ft 258kts
21-Jun-18 17:26 41.585613 -118.475883 211 30124ft 258kts
21-Jun-18 17:27 41.520124 -118.514759 211 30123ft 258kts
21-Jun-18 17:28 41.454574 -118.553583 211 30123ft 259kts
21-Jun-18 17:29 41.389248 -118.592193 211 30123ft 258kts
21-Jun-18 17:30 41.323780 -118.630788 210 30123ft 258kts
21-Jun-18 17:31 41.259244 -118.668779 210 30128ft 259kts
21-Jun-18 17:32 41.193465 -118.707396 210 30127ft 258kts
21-Jun-18 17:33 41.127759 -118.745888 210 30129ft 259kts
21-Jun-18 17:34 41.062783 -118.783798 211 30121ft 254kts
21-Jun-18 17:35 40.998957 -118.821006 212 30108ft 249kts
21-Jun-18 17:36 40.936057 -118.857649 212 30100ft 248kts
21-Jun-18 17:37 40.873347 -118.894133 212 30102ft 251kts
21-Jun-18 17:38 40.809161 -118.931365 212 30102ft 254kts
21-Jun-18 17:39 40.744219 -118.968998 211 29637ft 268kts
21-Jun-18 17:40 40.678283 -119.006970 211 28138ft 248kts
21-Jun-18 17:41 40.615061 -119.043441 210 26647ft 251kts
21-Jun-18 17:42 40.553660 -119.082259 217 25151ft 242kts
21-Jun-18 17:43 40.496376 -119.126913 216 23644ft 238kts
21-Jun-18 17:44 40.440293 -119.170487 216 22143ft 234kts
21-Jun-18 17:45 40.384798 -119.213501 215 20632ft 230kts
21-Jun-18 17:46 40.330322 -119.255639 215 19125ft 226kts
21-Jun-18 17:47 40.276609 -119.297104 214 17615ft 223kts
21-Jun-18 17:48 40.222219 -119.333163 193 16115ft 225kts
21-Jun-18 17:49 40.161259 -119.346494 193 14606ft 220kts
21-Jun-18 17:50 40.102166 -119.360349 193 13110ft 216kts
21-Jun-18 17:51 40.044026 -119.374910 193 11605ft 212kts
21-Jun-18 17:52 39.987119 -119.389093 193 10228ft 202kts
21-Jun-18 17:53 39.932452 -119.402367 193 10055ft 207kts
21-Jun-18 17:54 39.875733 -119.416210 193 10045ft 208kts
21-Jun-18 17:55 39.818868 -119.430101 193 10039ft 208kts
21-Jun-18 17:56 39.762197 -119.443896 193 10061ft 206kts
21-Jun-18 17:57 39.705430 -119.457749 193 10016ft 209kts
21-Jun-18 17:58 39.651807 -119.479140 203 10008ft 207kts
21-Jun-18 17:59 39.598340 -119.505347 204 10008ft 207kts
21-Jun-18 18:00 39.564741 -119.561616 242 10010ft 202kts
21-Jun-18 18:01 39.537909 -119.627387 245 9087ft 207kts
21-Jun-18 18:02 39.517656 -119.688279 250 8012ft 177kts
21-Jun-18 18:03 39.489906 -119.736774 192 6678ft 187kts
21-Jun-18 18:04 39.446632 -119.755413 269 5536ft 134kts
21-Jun-18 18:05 39.469478 -119.766766 350 4907ft 109kts
21-Jun-18 18:06 39.498188 -119.766915 0 4418ft 82kts
21-Jun-18 18:07 39.510310 -119.766723 8 4418ft 17kts
21-Jun-18 18:08 39.510956 -119.765578 88 4418ft 1kts
21-Jun-18 18:09 39.508176 -119.765752 179 4418ft 27kts
21-Jun-18 18:10 39.504430 -119.765084 69 4418ft 11kts
21-Jun-18 18:11 39.504854 -119.765292 275 4418ft 0kts
21-Jun-18 18:12 39.504854 -119.765292 275 4418ft 0kts
21-Jun-18 18:13 39.504854 -119.765292 275 4418ft 0kts

Navigation Log

Ident Type
Flight plan parsing failed, navigation log unavailable